Grass Creek, Indiana
Current Conditions -  °F | °C
As of 3:15 PM on Friday 21 Nov 2014 (Local Time) from KRCR Reporting Station
Clear Clear  
Wind Chill: 25°   Ceiling: Unl
Heat Index: 32°   Visibility: 10mi
Dew Point: 14°   Wind: 8mph
Humidity: 47%   Direction: 160°SSE
Pressure: 30.42"   Gusts: NA
Location:  40.95°N, 86.4°W
Report Text: KRCR 212015Z AUTO 16007KT 10SM CLR 00/M10 A3042 RMK AO2
Loading
Personal Weather Stations






























Interactive Weather Map New forecast layout! Learn more

10-Day Weather Forecast

Advertisements
Track Severe Weather on mobile